Time;durP1;ratioP1;P1;durP2;ratioP2;P2;SDS_P1;SDS_P2;PMS_P1;PMS_P2;Temp;Humidity;BMP_temperature;BMP_pressure;BME280_temperature;BME280_humidity;BME280_pressure;Samples;Min_cycle;Max_cycle;Signal;HPM_P1;HPM_P2
2021/07/11 00:01:03;;;;;;;;;;;;;;;18.04;100.00;99525.70;1764503;81;20106;-69
2021/07/11 00:03:29;;;;;;;;;;;;;;;17.99;100.00;99529.33;1764744;81;20086;-69
2021/07/11 00:05:55;;;;;;;;;;;;;;;17.92;100.00;99526.22;1764605;81;21098;-68
2021/07/11 00:08:22;;;;;;;;;;;;;;;17.90;100.00;99522.44;1764823;81;20408;-69
2021/07/11 00:10:49;;;;;;;;;;;;;;;17.97;100.00;99520.67;1764340;81;20082;-68
2021/07/11 00:13:16;;;;;;;;;;;;;;;18.04;100.00;99525.14;1764524;81;20102;-68
2021/07/11 00:15:43;;;;;;;;;;;;;;;18.05;100.00;99525.95;1764595;81;20134;-68
2021/07/11 00:18:11;;;;;;;;;;;;;;;18.02;100.00;99520.56;1764768;81;21125;-68
2021/07/11 00:20:38;;;;;;;;;;;;;;;17.98;100.00;99520.38;1764675;81;20141;-69
2021/07/11 00:23:04;;;;;;;;;;;;;;;17.90;100.00;99517.00;1764789;81;20411;-68
2021/07/11 00:25:31;;;;;;;;;;;;;;;17.87;100.00;99520.89;1764385;81;20138;-69
2021/07/11 00:27:59;;;;;;;;;;;;;;;17.86;100.00;99521.45;1764584;81;20090;-69
2021/07/11 00:30:26;;;;;;;;;;;;;;;17.85;100.00;99513.04;1764544;80;22321;-69
2021/07/11 00:32:54;;;;;;;;;;;;;;;17.82;100.00;99519.08;1764445;81;20086;-68
2021/07/11 00:35:20;;;;;;;;;;;;;;;17.76;100.00;99512.10;1764660;81;20095;-68
2021/07/11 00:37:47;;;;;;;;;;;;;;;17.70;100.00;99511.41;1764861;81;20364;-69
2021/07/11 00:40:16;;;;;;;;;;;;;;;17.66;100.00;99509.59;1764622;81;20110;-69
2021/07/11 00:42:44;;;;;;;;;;;;;;;17.61;100.00;99512.41;1764628;81;21109;-67
2021/07/11 00:45:11;;;;;;;;;;;;;;;17.62;100.00;99507.25;1764523;81;20165;-67
2021/07/11 00:47:39;;;;;;;;;;;;;;;17.67;100.00;99513.37;1765008;81;20348;-67
2021/07/11 00:50:11;;;;;;;;;;;;;;;17.67;100.00;99508.51;1764561;81;20074;-67
2021/07/11 00:52:39;;;;;;;;;;;;;;;17.65;100.00;99503.92;1764418;81;20139;-67
2021/07/11 00:55:08;;;;;;;;;;;;;;;17.61;100.00;99508.34;1761894;81;21773;-67
2021/07/11 00:57:35;;;;;;;;;;;;;;;17.54;100.00;99500.06;1764652;81;20106;-67
2021/07/11 01:00:05;;;;;;;;;;;;;;;17.51;100.00;99508.78;1764704;81;20094;-67
2021/07/11 01:02:52;;;;;;;;;;;;;;;17.46;100.00;99506.73;1764642;81;20082;-67
2021/07/11 01:05:19;;;;;;;;;;;;;;;17.39;100.00;99506.31;1764326;81;20090;-68
2021/07/11 01:08:03;;;;;;;;;;;;;;;17.33;100.00;99508.33;1713459;81;21146;-69
2021/07/11 01:10:35;;;;;;;;;;;;;;;17.27;100.00;99504.91;1764481;81;20102;-69
2021/07/11 01:13:05;;;;;;;;;;;;;;;17.24;100.00;99504.13;1764408;81;20082;-68
2021/07/11 01:15:32;;;;;;;;;;;;;;;17.21;100.00;99501.23;1737304;81;20075;-68
2021/07/11 01:18:03;;;;;;;;;;;;;;;17.18;100.00;99496.41;1764995;81;20110;-68
2021/07/11 01:20:44;;;;;;;;;;;;;;;17.14;100.00;99501.61;1764465;81;20431;-68
2021/07/11 01:23:24;;;;;;;;;;;;;;;17.08;100.00;99500.91;1764729;81;20170;-68
2021/07/11 01:25:51;;;;;;;;;;;;;;;17.05;100.00;99504.22;1763550;81;20118;-68
2021/07/11 01:28:20;;;;;;;;;;;;;;;17.06;100.00;99499.03;1764536;81;20110;-68
2021/07/11 01:30:48;;;;;;;;;;;;;;;17.07;100.00;99501.19;1764562;80;20411;-68
2021/07/11 01:33:16;;;;;;;;;;;;;;;17.07;100.00;99495.77;1764970;81;21120;-68
2021/07/11 01:35:43;;;;;;;;;;;;;;;17.04;100.00;99495.02;1761924;81;20070;-67
2021/07/11 01:38:10;;;;;;;;;;;;;;;17.01;100.00;99492.34;1764324;81;20078;-68
2021/07/11 01:40:37;;;;;;;;;;;;;;;17.00;100.00;99493.98;1764566;81;20118;-68
2021/07/11 01:43:04;;;;;;;;;;;;;;;16.99;100.00;99493.19;1764716;81;20141;-68
2021/07/11 01:45:33;;;;;;;;;;;;;;;17.00;100.00;99502.12;1764269;81;21078;-68
2021/07/11 01:48:00;;;;;;;;;;;;;;;16.99;100.00;99498.61;1764202;81;20160;-69
2021/07/11 01:50:27;;;;;;;;;;;;;;;16.95;100.00;99500.30;1764408;81;20113;-68
2021/07/11 01:52:56;;;;;;;;;;;;;;;16.93;100.00;99494.40;1764435;81;20090;-68
2021/07/11 01:55:25;;;;;;;;;;;;;;;16.96;100.00;99501.12;1764531;81;20114;-68
2021/07/11 01:57:52;;;;;;;;;;;;;;;16.96;100.00;99499.77;1736705;81;21264;-68
2021/07/11 02:00:19;;;;;;;;;;;;;;;16.92;100.00;99504.41;1764487;81;20078;-68
2021/07/11 02:02:46;;;;;;;;;;;;;;;16.86;100.00;99506.97;1764815;81;20114;-68
2021/07/11 02:05:18;;;;;;;;;;;;;;;16.80;100.00;99499.20;1758284;81;20110;-68
2021/07/11 02:07:46;;;;;;;;;;;;;;;16.80;100.00;99508.14;1753017;82;20090;-68
2021/07/11 02:10:15;;;;;;;;;;;;;;;16.80;100.00;99495.94;1753058;82;21192;-68
2021/07/11 02:12:58;;;;;;;;;;;;;;;16.80;100.00;99494.59;1753315;82;20108;-68
2021/07/11 02:15:29;;;;;;;;;;;;;;;16.80;100.00;99500.56;1753063;82;20079;-68
2021/07/11 02:17:56;;;;;;;;;;;;;;;16.77;100.00;99498.42;1753300;81;20078;-68
2021/07/11 02:20:25;;;;;;;;;;;;;;;16.77;100.00;99501.93;1753210;81;20393;-68
2021/07/11 02:22:55;;;;;;;;;;;;;;;16.81;100.00;99503.55;1752727;81;20095;-68
2021/07/11 02:25:22;;;;;;;;;;;;;;;16.85;100.00;99505.34;1752793;82;20115;-68
2021/07/11 02:27:51;;;;;;;;;;;;;;;16.85;100.00;99505.34;1752325;82;20083;-68
2021/07/11 02:30:23;;;;;;;;;;;;;;;16.88;100.00;99503.97;1752799;80;20118;-68
2021/07/11 02:32:48;;;;;;;;;;;;;;;16.89;100.00;99504.22;1753129;81;20381;-68
2021/07/11 02:35:16;;;;;;;;;;;;;;;16.88;100.00;99511.55;1752632;82;21164;-69
2021/07/11 02:37:48;;;;;;;;;;;;;;;16.92;100.00;99511.19;1752936;82;20122;-68
2021/07/11 02:40:16;;;;;;;;;;;;;;;16.98;100.00;99514.64;1752693;81;20095;-69
2021/07/11 02:42:44;;;;;;;;;;;;;;;17.06;100.00;99515.86;1752556;81;20103;-68
2021/07/11 02:45:12;;;;;;;;;;;;;;;17.11;100.00;99514.41;1754173;81;20113;-68
2021/07/11 02:47:40;;;;;;;;;;;;;;;17.17;100.00;99515.92;1752541;82;21121;-68
2021/07/11 02:50:09;;;;;;;;;;;;;;;17.17;100.00;99522.70;1751856;81;20102;-68
2021/07/11 02:52:40;;;;;;;;;;;;;;;17.20;100.00;99516.70;1729143;82;20126;-68
2021/07/11 02:55:14;;;;;;;;;;;;;;;17.21;100.00;99514.23;1752729;81;20201;-68
2021/07/11 02:57:45;;;;;;;;;;;;;;;17.21;100.00;99515.59;1752819;82;20119;-68
2021/07/11 03:00:13;;;;;;;;;;;;;;;17.23;100.00;99518.81;1752876;82;21154;-68
2021/07/11 03:02:43;;;;;;;;;;;;;;;17.28;100.00;99516.00;1752780;81;20083;-68
2021/07/11 03:05:12;;;;;;;;;;;;;;;17.32;100.00;99517.02;1752917;81;20365;-68
2021/07/11 03:07:40;;;;;;;;;;;;;;;17.35;100.00;99512.34;1752817;82;20091;-69
2021/07/11 03:10:09;;;;;;;;;;;;;;;17.43;100.00;99522.25;1752712;82;20400;-68
2021/07/11 03:12:36;;;;;;;;;;;;;;;17.47;100.00;99522.72;1754340;81;21725;-69
2021/07/11 03:15:04;;;;;;;;;;;;;;;17.50;100.00;99524.02;1753166;81;20439;-69
2021/07/11 03:17:32;;;;;;;;;;;;;;;17.57;100.00;99526.59;1753120;81;20099;-69
2021/07/11 03:20:03;;;;;;;;;;;;;;;17.69;100.00;99522.59;1752961;81;20420;-69
2021/07/11 03:22:33;;;;;;;;;;;;;;;17.84;100.00;99520.15;1752996;81;20083;-69
2021/07/11 03:25:03;;;;;;;;;;;;;;;17.98;100.00;99524.98;1752887;82;21148;-69
2021/07/11 03:27:31;;;;;;;;;;;;;;;18.13;100.00;99526.61;1752914;82;20119;-69
2021/07/11 03:30:10;;;;;;;;;;;;;;;18.34;100.00;99524.23;1752897;80;20078;-70
2021/07/11 03:32:51;;;;;;;;;;;;;;;18.61;100.00;99526.06;1752920;81;20098;-69
2021/07/11 03:35:19;;;;;;;;;;;;;;;18.89;100.00;99525.43;1753066;82;20103;-69
2021/07/11 03:37:48;;;;;;;;;;;;;;;19.12;100.00;99528.92;1752787;81;21072;-69
2021/07/11 03:40:18;;;;;;;;;;;;;;;19.39;100.00;99530.67;1753064;82;20115;-69
2021/07/11 03:42:45;;;;;;;;;;;;;;;19.60;100.00;99534.19;1753397;81;20091;-69
2021/07/11 03:45:14;;;;;;;;;;;;;;;19.79;100.00;99536.70;1752872;81;20126;-69
2021/07/11 03:47:56;;;;;;;;;;;;;;;19.91;100.00;99526.80;1706104;82;20401;-68
2021/07/11 03:50:22;;;;;;;;;;;;;;;20.07;100.00;99533.19;1753021;82;21116;-69
2021/07/11 03:52:52;;;;;;;;;;;;;;;20.23;100.00;99531.59;1705690;82;20107;-69
2021/07/11 03:55:19;;;;;;;;;;;;;;;20.38;100.00;99534.98;1752717;82;20103;-68
2021/07/11 03:57:45;;;;;;;;;;;;;;;20.62;100.00;99535.91;1752947;82;21624;-69
2021/07/11 04:00:16;;;;;;;;;;;;;;;20.90;100.00;99539.91;1752773;82;20087;-69
2021/07/11 04:02:45;;;;;;;;;;;;;;;21.20;100.00;99541.38;1752569;82;21144;-69
2021/07/11 04:05:12;;;;;;;;;;;;;;;21.48;100.00;99543.16;1751761;81;20139;-69
2021/07/11 04:07:38;;;;;;;;;;;;;;;21.69;100.00;99535.63;1753218;82;20079;-69
2021/07/11 04:10:06;;;;;;;;;;;;;;;21.93;100.00;99538.56;1753406;81;20138;-69
2021/07/11 04:12:33;;;;;;;;;;;;;;;22.21;100.00;99541.63;1753025;81;20116;-69
2021/07/11 04:15:00;;;;;;;;;;;;;;;22.49;100.00;99539.77;1752981;82;21086;-69
2021/07/11 04:17:26;;;;;;;;;;;;;;;22.65;100.00;99538.58;1753010;82;20364;-69
2021/07/11 04:19:56;;;;;;;;;;;;;;;22.74;100.00;99542.05;1753091;82;20078;-69
2021/07/11 04:22:22;;;;;;;;;;;;;;;22.82;100.00;99548.57;1753092;82;20094;-69
2021/07/11 04:24:49;;;;;;;;;;;;;;;22.81;100.00;99547.78;1752937;82;20122;-69
2021/07/11 04:27:15;;;;;;;;;;;;;;;22.96;100.00;99549.09;1753105;81;21867;-69
2021/07/11 04:29:41;;;;;;;;;;;;;;;23.20;100.00;99549.77;1752975;82;20130;-69
2021/07/11 04:32:09;;;;;;;;;;;;;;;23.47;100.00;99557.11;1753062;82;20103;-69
2021/07/11 04:34:35;;;;;;;;;;;;;;;23.58;100.00;99561.59;1753431;82;20102;-69
2021/07/11 04:37:04;;;;;;;;;;;;;;;23.68;100.00;99555.66;1753228;81;20404;-69
2021/07/11 04:39:30;;;;;;;;;;;;;;;23.99;100.00;99558.45;1753050;82;21130;-69
2021/07/11 04:41:57;;;;;;;;;;;;;;;24.33;100.00;99554.41;1752887;82;20423;-69
2021/07/11 04:44:25;;;;;;;;;;;;;;;24.61;100.00;99555.84;1752350;82;20150;-69
2021/07/11 04:46:52;;;;;;;;;;;;;;;24.64;100.00;99559.84;1753041;82;20126;-69
2021/07/11 04:49:18;;;;;;;;;;;;;;;24.57;100.00;99558.50;1753043;82;20071;-69
2021/07/11 04:51:44;;;;;;;;;;;;;;;24.66;100.00;99558.92;1753023;82;21120;-69
2021/07/11 04:54:11;;;;;;;;;;;;;;;24.64;100.00;99564.74;1752968;82;20078;-69
2021/07/11 04:56:38;;;;;;;;;;;;;;;24.75;100.00;99563.70;1753013;82;20436;-69
2021/07/11 04:59:05;;;;;;;;;;;;;;;24.75;100.00;99560.38;1753016;82;20095;-69
2021/07/11 05:01:31;;;;;;;;;;;;;;;24.70;100.00;99564.73;1752894;82;20517;-69
2021/07/11 05:03:57;;;;;;;;;;;;;;;24.70;100.00;99562.58;1753396;82;21141;-69
2021/07/11 05:06:24;;;;;;;;;;;;;;;24.65;100.00;99566.36;1752866;81;20087;-69
2021/07/11 05:15:59;;;;;;;;;;;;;;;24.32;100.00;99563.19;1701533;84;20115;-69
2021/07/11 05:18:26;;;;;;;;;;;;;;;24.56;100.00;99567.86;1701686;84;21130;-69
2021/07/11 05:20:54;;;;;;;;;;;;;;;24.72;100.00;99567.12;1700954;84;20075;-69
2021/07/11 05:23:22;;;;;;;;;;;;;;;24.72;100.00;99567.94;1701710;84;20142;-69
2021/07/11 05:25:49;;;;;;;;;;;;;;;24.79;100.00;99565.41;1701701;84;20111;-69
2021/07/11 05:28:17;;;;;;;;;;;;;;;25.00;100.00;99567.93;1701531;84;20150;-69
2021/07/11 05:30:43;;;;;;;;;;;;;;;25.26;100.00;99568.08;1701613;83;21755;-69
2021/07/11 05:33:10;;;;;;;;;;;;;;;25.71;100.00;99570.19;1677393;84;20083;-69
2021/07/11 05:35:38;;;;;;;;;;;;;;;26.06;100.00;99567.52;1701561;84;20171;-69
2021/07/11 05:38:05;;;;;;;;;;;;;;;26.41;100.00;99576.35;1701758;84;20079;-70
2021/07/11 05:40:31;;;;;;;;;;;;;;;26.78;100.00;99581.48;1701726;84;20162;-67
2021/07/11 05:42:58;;;;;;;;;;;;;;;26.98;100.00;99582.30;1707333;83;21321;-66
2021/07/11 05:45:26;;;;;;;;;;;;;;;27.14;98.17;99584.38;1698300;83;20099;-71
2021/07/11 05:47:52;;;;;;;;;;;;;;;27.39;94.26;99583.51;1701707;83;20206;-69
2021/07/11 05:50:19;;;;;;;;;;;;;;;27.73;91.24;99588.63;1754728;82;20091;-68
2021/07/11 05:52:45;;;;;;;;;;;;;;;28.03;86.93;99591.27;1754456;82;20079;-66
2021/07/11 05:55:12;;;;;;;;;;;;;;;28.00;84.59;99589.48;1754595;80;21144;-66
2021/07/11 05:57:38;;;;;;;;;;;;;;;27.94;84.79;99591.55;1750703;80;20090;-65
2021/07/11 06:00:07;;;;;;;;;;;;;;;27.38;99.87;99586.62;1753329;81;20091;-68
2021/07/11 06:02:37;;;;;;;;;;;;;;;26.59;100.00;99586.42;1754170;80;21038;-68
2021/07/11 06:05:04;;;;;;;;;;;;;;;26.26;100.00;99582.12;1754528;82;20125;-68
2021/07/11 06:07:31;;;;;;;;;;;;;;;26.30;100.00;99585.17;1749302;81;21109;-68
2021/07/11 06:09:59;;;;;;;;;;;;;;;25.99;100.00;99580.55;1762035;81;20396;-68
2021/07/11 06:12:26;;;;;;;;;;;;;;;25.98;100.00;99578.14;1765935;80;20176;-68
2021/07/11 06:14:55;;;;;;;;;;;;;;;26.09;100.00;99579.99;1765213;81;20149;-67
2021/07/11 06:17:23;;;;;;;;;;;;;;;26.30;100.00;99579.67;1765413;80;20176;-66
2021/07/11 06:19:49;;;;;;;;;;;;;;;26.41;100.00;99579.10;1780487;80;21702;-66
2021/07/11 06:22:16;;;;;;;;;;;;;;;26.56;100.00;99563.17;1786957;80;20168;-66
2021/07/11 06:24:43;;;;;;;;;;;;;;;26.49;100.00;99572.62;1786584;80;20130;-65
2021/07/11 06:27:10;;;;;;;;;;;;;;;26.36;100.00;99580.77;1787390;80;20092;-65
2021/07/11 06:29:37;;;;;;;;;;;;;;;26.43;100.00;99576.80;1787223;80;20076;-65
2021/07/11 06:32:04;;;;;;;;;;;;;;;26.22;100.00;99579.88;1787189;79;21037;-67
2021/07/11 06:34:31;;;;;;;;;;;;;;;26.06;100.00;99579.89;1786894;80;20154;-67
2021/07/11 06:37:06;;;;;;;;;;;;;;;26.27;99.90;99580.98;1787195;80;20402;-66
2021/07/11 06:39:33;;;;;;;;;;;;;;;26.30;100.00;99580.25;1787092;80;20120;-67
2021/07/11 06:42:00;;;;;;;;;;;;;;;26.50;93.68;99587.38;1767848;80;20409;-66
2021/07/11 06:44:26;;;;;;;;;;;;;;;26.29;97.16;99579.46;1766215;80;21104;-66
2021/07/11 06:46:52;;;;;;;;;;;;;;;26.11;99.38;99585.12;1766150;80;20076;-66
2021/07/11 06:49:19;;;;;;;;;;;;;;;25.65;100.00;99579.28;1761357;80;20118;-66
2021/07/11 06:51:45;;;;;;;;;;;;;;;25.41;100.00;99581.03;1759405;80;20082;-67
2021/07/11 06:54:11;;;;;;;;;;;;;;;25.68;100.00;99575.03;1766410;80;20114;-66
2021/07/11 06:56:39;;;;;;;;;;;;;;;26.02;100.00;99582.57;1766155;80;21071;-67
2021/07/11 06:59:05;;;;;;;;;;;;;;;26.14;99.52;99585.80;1765804;80;20120;-67
2021/07/11 07:01:32;;;;;;;;;;;;;;;26.75;96.54;99585.77;1766130;81;20176;-67
2021/07/11 07:03:58;;;;;;;;;;;;;;;27.22;80.90;99583.39;1765987;81;20113;-67
2021/07/11 07:06:25;;;;;;;;;;;;;;;27.54;75.52;99583.17;1762222;80;20145;-70
2021/07/11 07:08:52;;;;;;;;;;;;;;;27.79;70.39;99591.86;1754000;81;20595;-69
2021/07/11 07:11:18;;;;;;;;;;;;;;;27.95;67.38;99590.36;1754095;82;20165;-67
2021/07/11 07:13:45;;;;;;;;;;;;;;;28.15;66.97;99591.06;1754378;81;20134;-69
2021/07/11 07:16:12;;;;;;;;;;;;;;;28.31;67.36;99597.22;1754201;82;20522;-69
2021/07/11 07:18:40;;;;;;;;;;;;;;;28.21;67.37;99597.28;1754447;81;20114;-66
2021/07/11 07:21:07;;;;;;;;;;;;;;;28.31;66.24;99595.84;1754016;82;21030;-67
2021/07/11 07:23:33;;;;;;;;;;;;;;;28.07;62.61;99587.98;1754211;81;20126;-65
2021/07/11 07:26:00;;;;;;;;;;;;;;;27.81;67.28;99595.05;1754179;81;20173;-65
2021/07/11 07:28:27;;;;;;;;;;;;;;;27.46;64.04;99593.84;1754399;81;20118;-67
2021/07/11 07:30:55;;;;;;;;;;;;;;;27.30;66.76;99592.00;1754638;82;20129;-66
2021/07/11 07:33:21;;;;;;;;;;;;;;;27.39;67.25;99596.47;1754492;82;21094;-66
2021/07/11 07:35:48;;;;;;;;;;;;;;;27.93;64.91;99594.89;1754291;81;20141;-66
2021/07/11 07:38:15;;;;;;;;;;;;;;;28.53;64.02;99595.59;1754266;82;20133;-67
2021/07/11 07:40:42;;;;;;;;;;;;;;;29.13;63.63;99594.78;1754092;82;20101;-68
2021/07/11 07:43:09;;;;;;;;;;;;;;;29.22;59.63;99600.00;1754465;82;20106;-69
2021/07/11 07:45:37;;;;;;;;;;;;;;;28.88;61.23;99597.20;1754338;81;21117;-67
2021/07/11 07:48:05;;;;;;;;;;;;;;;28.76;62.15;99603.80;1693957;84;20165;-68
2021/07/11 07:50:31;;;;;;;;;;;;;;;28.67;62.03;99594.20;1674791;84;20323;-67
2021/07/11 07:52:58;;;;;;;;;;;;;;;29.20;62.48;99598.20;1658691;86;20149;-68
2021/07/11 07:55:24;;;;;;;;;;;;;;;29.80;57.33;99603.55;1687167;84;20463;-67
2021/07/11 07:57:52;;;;;;;;;;;;;;;30.30;55.89;99604.53;1687729;84;21750;-69
2021/07/11 08:00:19;;;;;;;;;;;;;;;30.79;51.88;99608.74;1686098;84;20129;-68
2021/07/11 08:02:47;;;;;;;;;;;;;;;30.51;50.66;99604.66;1665468;86;20113;-68
2021/07/11 08:05:15;;;;;;;;;;;;;;;30.41;51.57;99600.45;1673227;84;20166;-68
2021/07/11 08:07:41;;;;;;;;;;;;;;;30.51;53.00;99604.66;1702193;83;20522;-67
2021/07/11 08:10:08;;;;;;;;;;;;;;;30.95;51.61;99605.69;1713663;83;21721;-68
2021/07/11 08:12:35;;;;;;;;;;;;;;;31.25;51.23;99603.19;1725620;83;20437;-69
2021/07/11 08:15:02;;;;;;;;;;;;;;;31.37;49.92;99613.31;1700090;83;20408;-70
2021/07/11 08:17:30;;;;;;;;;;;;;;;31.33;50.11;99605.57;1673382;84;20182;-69
2021/07/11 08:19:56;;;;;;;;;;;;;;;31.58;49.99;99609.83;1740174;80;20474;-69
2021/07/11 08:22:24;;;;;;;;;;;;;;;31.48;49.11;99605.06;1756191;80;20103;-69
2021/07/11 08:24:50;;;;;;;;;;;;;;;31.46;47.47;99600.50;1756209;80;20642;-69
2021/07/11 08:27:17;;;;;;;;;;;;;;;31.37;49.72;99608.38;1756783;81;20125;-69
2021/07/11 08:29:43;;;;;;;;;;;;;;;31.44;50.23;99604.25;1756189;80;20450;-69
2021/07/11 08:32:09;;;;;;;;;;;;;;;31.73;49.56;99595.37;1756566;80;20091;-68
2021/07/11 08:34:35;;;;;;;;;;;;;;;31.91;48.99;99600.91;1755943;80;21709;-69
2021/07/11 08:37:04;;;;;;;;;;;;;;;32.08;46.41;99595.77;1756121;80;20161;-68
2021/07/11 08:39:31;;;;;;;;;;;;;;;32.23;47.36;99591.78;1756124;80;20090;-68
2021/07/11 08:41:57;;;;;;;;;;;;;;;32.30;44.15;99596.53;1756455;80;20079;-69
2021/07/11 08:44:25;;;;;;;;;;;;;;;32.43;44.83;99596.28;1756269;80;20446;-69
2021/07/11 08:46:51;;;;;;;;;;;;;;;32.74;45.57;99593.84;1756297;80;21117;-68
2021/07/11 08:49:18;;;;;;;;;;;;;;;32.87;41.87;99596.36;1761329;80;20161;-69
2021/07/11 08:51:45;;;;;;;;;;;;;;;32.88;43.44;99588.23;1705448;81;20125;-69
2021/07/11 08:54:12;;;;;;;;;;;;;;;32.69;40.77;99590.09;1756209;80;20118;-69
2021/07/11 08:56:39;;;;;;;;;;;;;;;32.38;39.38;99593.32;1755297;81;20166;-69
2021/07/11 08:59:05;;;;;;;;;;;;;;;32.21;40.23;99589.98;1756079;81;22253;-68
2021/07/11 09:01:31;;;;;;;;;;;;;;;32.02;41.64;99591.20;1756377;80;20268;-69
2021/07/11 09:04:02;;;;;;;;;;;;;;;31.44;41.86;99589.60;1756078;80;20114;-68
2021/07/11 09:06:49;;;;;;;;;;;;;;;31.07;44.37;99577.61;1763837;80;20094;-68
2021/07/11 09:09:30;;;;;;;;;;;;;;;30.59;45.30;99587.48;1765115;80;20401;-69
2021/07/11 09:12:01;;;;;;;;;;;;;;;30.11;48.18;99580.67;1765449;80;21184;-69
2021/07/11 09:14:28;;;;;;;;;;;;;;;30.00;49.39;99575.64;1733263;81;20097;-68
2021/07/11 09:16:57;;;;;;;;;;;;;;;29.96;49.44;99578.36;1764872;80;20114;-69
2021/07/11 09:19:30;;;;;;;;;;;;;;;29.66;50.73;99580.70;1765314;80;20395;-69
2021/07/11 09:22:05;;;;;;;;;;;;;;;29.45;50.89;99582.67;1732880;81;20446;-69
2021/07/11 09:24:33;;;;;;;;;;;;;;;29.35;51.07;99577.02;1764806;80;21101;-69
2021/07/11 09:27:11;;;;;;;;;;;;;;;29.32;52.21;99573.64;1765446;80;20086;-69
2021/07/11 09:29:38;;;;;;;;;;;;;;;29.31;52.61;99572.86;1732883;81;20414;-69
2021/07/11 09:32:06;;;;;;;;;;;;;;;29.24;54.59;99568.05;1764731;80;20400;-69
2021/07/11 09:34:32;;;;;;;;;;;;;;;29.22;54.25;99567.62;1765464;80;20146;-69
2021/07/11 09:37:09;;;;;;;;;;;;;;;29.13;53.82;99565.77;1733134;81;22529;-69
2021/07/11 09:39:36;;;;;;;;;;;;;;;29.05;53.83;99563.46;1764380;80;20090;-69
2021/07/11 09:42:04;;;;;;;;;;;;;;;29.06;54.51;99564.31;1765410;80;20175;-69
2021/07/11 09:44:41;;;;;;;;;;;;;;;29.16;54.65;99559.48;1733246;81;20135;-69
2021/07/11 09:47:17;;;;;;;;;;;;;;;29.22;52.90;99561.30;1763919;80;20431;-69
2021/07/11 09:49:46;;;;;;;;;;;;;;;29.30;55.43;99560.78;1765321;80;21875;-69
2021/07/11 09:52:14;;;;;;;;;;;;;;;29.38;54.33;99559.70;1706231;83;20096;-68
2021/07/11 09:54:42;;;;;;;;;;;;;;;29.45;52.71;99560.55;1737461;81;20121;-69
2021/07/11 09:57:09;;;;;;;;;;;;;;;29.46;50.80;99564.90;1739474;81;20399;-68
2021/07/11 09:59:35;;;;;;;;;;;;;;;29.41;52.92;99560.31;1732222;81;20459;-69
2021/07/11 10:02:03;;;;;;;;;;;;;;;29.71;51.64;99564.34;1764838;80;21909;-69
2021/07/11 10:04:29;;;;;;;;;;;;;;;30.47;51.17;99563.69;1765472;80;20407;-69
2021/07/11 10:06:57;;;;;;;;;;;;;;;31.11;48.38;99560.97;1732852;81;20403;-69
2021/07/11 10:09:24;;;;;;;;;;;;;;;31.52;45.65;99553.74;1764810;80;20106;-68
2021/07/11 10:11:51;;;;;;;;;;;;;;;31.85;44.96;99555.33;1764320;80;20066;-68
2021/07/11 10:14:19;;;;;;;;;;;;;;;32.30;41.86;99556.27;1732950;81;22179;-68
2021/07/11 10:16:46;;;;;;;;;;;;;;;32.86;38.79;99558.05;1764620;80;20094;-68
2021/07/11 10:19:12;;;;;;;;;;;;;;;33.09;36.41;99564.49;1765428;80;20141;-67
2021/07/11 10:21:40;;;;;;;;;;;;;;;32.95;37.71;99557.63;1733053;81;20080;-68
2021/07/11 10:24:10;;;;;;;;;;;;;;;32.94;37.56;99553.24;1764951;80;20086;-68
2021/07/11 10:26:38;;;;;;;;;;;;;;;33.07;38.12;99555.80;1761421;80;21137;-68
2021/07/11 10:29:15;;;;;;;;;;;;;;;33.13;35.71;99553.97;1732917;81;20120;-68
2021/07/11 10:31:44;;;;;;;;;;;;;;;32.83;34.68;99553.31;1764891;80;20133;-68
2021/07/11 10:34:10;;;;;;;;;;;;;;;32.91;36.09;99543.55;1765367;80;20134;-68
2021/07/11 10:36:39;;;;;;;;;;;;;;;32.95;35.32;99546.50;1732990;81;20080;-68
2021/07/11 10:39:09;;;;;;;;;;;;;;;33.22;34.93;99544.55;1765038;80;21208;-68
2021/07/11 10:41:48;;;;;;;;;;;;;;;33.08;35.10;99545.45;1764132;81;20412;-67
2021/07/11 10:44:24;;;;;;;;;;;;;;;33.14;33.17;99547.98;1733061;81;20097;-68
2021/07/11 10:46:59;;;;;;;;;;;;;;;33.25;33.26;99543.16;1765172;80;20436;-68
2021/07/11 10:49:32;;;;;;;;;;;;;;;33.43;33.31;99544.41;1764905;80;20122;-68
2021/07/11 10:51:59;;;;;;;;;;;;;;;33.79;33.48;99546.14;1731985;81;21179;-69
2021/07/11 10:54:31;;;;;;;;;;;;;;;33.65;32.92;99544.27;1757097;80;20078;-68
2021/07/11 10:57:01;;;;;;;;;;;;;;;33.78;32.39;99545.33;1765447;80;20094;-68
2021/07/11 10:59:33;;;;;;;;;;;;;;;33.86;33.69;99547.47;1762598;80;20090;-68
2021/07/11 11:02:02;;;;;;;;;;;;;;;34.01;34.38;99552.30;1763447;80;20111;-68
2021/07/11 11:04:28;;;;;;;;;;;;;;;33.96;34.73;99547.96;1763667;80;21151;-68
2021/07/11 11:06:56;;;;;;;;;;;;;;;33.37;34.44;99549.41;1763406;80;20083;-68
2021/07/11 11:09:44;;;;;;;;;;;;;;;32.84;34.99;99546.55;1763553;80;20379;-68
2021/07/11 11:12:28;;;;;;;;;;;;;;;32.85;37.68;99541.20;1763386;80;20398;-68
2021/07/11 11:15:00;;;;;;;;;;;;;;;33.10;34.98;99541.67;1763514;80;20122;-68
2021/07/11 11:17:28;;;;;;;;;;;;;;;33.02;33.01;99550.60;1763401;81;21186;-69
2021/07/11 11:19:55;;;;;;;;;;;;;;;32.93;31.97;99541.94;1763320;80;20207;-69
2021/07/11 11:22:27;;;;;;;;;;;;;;;33.08;30.92;99544.85;1761941;79;20458;-69
2021/07/11 11:24:54;;;;;;;;;;;;;;;33.28;31.66;99549.89;1767750;80;20156;-69
2021/07/11 11:27:37;;;;;;;;;;;;;;;33.64;29.99;99546.88;1767702;80;20103;-69
2021/07/11 11:30:18;;;;;;;;;;;;;;;33.47;31.34;99545.18;1752348;80;21138;-68
2021/07/11 11:32:54;;;;;;;;;;;;;;;33.57;31.55;99541.36;1759283;80;20175;-68
2021/07/11 11:35:23;;;;;;;;;;;;;;;34.15;29.42;99546.58;1766057;80;20418;-69
2021/07/11 11:37:53;;;;;;;;;;;;;;;34.61;30.22;99540.33;1766021;81;20575;-68
2021/07/11 11:40:20;;;;;;;;;;;;;;;34.56;28.03;99545.72;1766311;80;20431;-68
2021/07/11 11:42:55;;;;;;;;;;;;;;;34.81;28.04;99544.03;1765450;80;20149;-69
2021/07/11 11:45:24;;;;;;;;;;;;;;;34.92;27.64;99539.72;1763820;80;20090;-69
2021/07/11 11:47:59;;;;;;;;;;;;;;;34.94;28.00;99538.70;1764418;80;20078;-68
2021/07/11 11:50:26;;;;;;;;;;;;;;;34.74;29.69;99539.94;1764132;80;20090;-67
2021/07/11 11:53:13;;;;;;;;;;;;;;;34.86;29.79;99529.62;1732860;81;20136;-67
2021/07/11 11:55:53;;;;;;;;;;;;;;;34.74;30.53;99518.45;1764579;80;21154;-68
2021/07/11 11:58:26;;;;;;;;;;;;;;;34.38;29.77;99520.09;1765221;81;21624;-69
2021/07/11 12:01:01;;;;;;;;;;;;;;;34.50;31.75;99517.54;1732631;81;20135;-69
2021/07/11 12:03:27;;;;;;;;;;;;;;;34.57;31.42;99518.06;1764165;80;20225;-68
2021/07/11 12:05:54;;;;;;;;;;;;;;;34.28;30.58;99515.61;1770255;79;20082;-68
2021/07/11 12:08:20;;;;;;;;;;;;;;;34.12;31.55;99512.61;1763466;79;21164;-68
2021/07/11 12:10:48;;;;;;;;;;;;;;;34.12;32.36;99505.04;1752860;81;20502;-68
2021/07/11 12:13:23;;;;;;;;;;;;;;;34.12;27.57;99507.04;1752641;81;20138;-69
2021/07/11 12:15:52;;;;;;;;;;;;;;;34.04;29.32;99505.52;1753193;81;20091;-68
2021/07/11 12:18:20;;;;;;;;;;;;;;;33.53;29.91;99503.18;1753413;81;20143;-68
2021/07/11 12:20:54;;;;;;;;;;;;;;;33.00;29.25;99504.38;1755337;80;21108;-69
2021/07/11 12:23:20;;;;;;;;;;;;;;;33.09;29.01;99506.11;1750159;81;20107;-69
2021/07/11 12:25:59;;;;;;;;;;;;;;;33.42;30.40;99498.94;1725148;82;20113;-69
2021/07/11 12:28:26;;;;;;;;;;;;;;;33.73;29.75;99504.03;1723444;83;20216;-68
2021/07/11 12:30:54;;;;;;;;;;;;;;;33.69;28.26;99494.94;1695140;83;20452;-69
2021/07/11 12:33:25;;;;;;;;;;;;;;;33.68;29.86;99498.30;1723175;83;21817;-68
2021/07/11 12:35:53;;;;;;;;;;;;;;;33.87;31.12;99494.15;1695202;84;20099;-68
2021/07/11 12:38:32;;;;;;;;;;;;;;;33.90;27.60;99491.92;1723539;83;20121;-68
2021/07/11 12:40:59;;;;;;;;;;;;;;;34.03;28.01;99490.00;1695088;83;20147;-68
2021/07/11 12:43:32;;;;;;;;;;;;;;;34.07;29.02;99493.55;1723508;83;20143;-68
2021/07/11 12:46:07;;;;;;;;;;;;;;;34.05;28.40;99483.42;1695197;83;21139;-68
2021/07/11 12:48:35;;;;;;;;;;;;;;;33.99;29.24;99485.88;1723026;82;20185;-68
2021/07/11 12:51:14;;;;;;;;;;;;;;;33.98;28.76;99486.28;1694703;84;20174;-68
2021/07/11 12:53:40;;;;;;;;;;;;;;;33.99;28.27;99482.30;1695145;83;20455;-68
2021/07/11 12:56:07;;;;;;;;;;;;;;;34.07;26.80;99485.97;1694915;84;20098;-68